Time;durP1;ratioP1;P1;durP2;ratioP2;P2;SDS_P1;SDS_P2;PMS_P1;PMS_P2;Temp;Humidity;BMP_temperature;BMP_pressure;BME280_temperature;BME280_humidity;BME280_pressure;Samples;Min_cycle;Max_cycle;Signal;HPM_P1;HPM_P2
2022/06/28 00:02:01;;;;;;;;;;;;;;;17.81;97.29;99788.59;1678553;85;20113;-65
2022/06/28 00:04:21;;;;;;;;;;;;;;;17.78;97.48;99781.78;1674850;85;20073;-65
2022/06/28 00:06:50;;;;;;;;;;;;;;;17.77;97.48;99786.31;1678888;85;21270;-65
2022/06/28 00:09:21;;;;;;;;;;;;;;;17.75;97.66;99783.89;1659585;85;20140;-65
2022/06/28 00:11:48;;;;;;;;;;;;;;;17.74;97.60;99778.11;1659482;85;20100;-65
2022/06/28 00:17:08;;;;;;;;;;;;;;;17.68;97.73;99776.77;1678460;85;20124;-65
2022/06/28 00:19:37;;;;;;;;;;;;;;;17.66;97.77;99779.09;1680137;85;21240;-65
2022/06/28 00:22:11;;;;;;;;;;;;;;;17.63;98.01;99766.48;1680189;85;20084;-65
2022/06/28 00:24:45;;;;;;;;;;;;;;;17.60;98.17;99772.75;1669789;85;20439;-65
2022/06/28 00:27:15;;;;;;;;;;;;;;;17.59;98.34;99768.36;1682698;85;20459;-65
2022/06/28 00:29:41;;;;;;;;;;;;;;;17.58;98.46;99774.48;1648282;86;20453;-64
2022/06/28 00:32:15;;;;;;;;;;;;;;;17.57;98.62;99773.45;1621076;87;21158;-65
2022/06/28 00:34:47;;;;;;;;;;;;;;;17.55;98.83;99771.03;1619439;88;20105;-65
2022/06/28 00:37:19;;;;;;;;;;;;;;;17.53;98.87;99768.39;1647129;86;20098;-64
2022/06/28 00:39:44;;;;;;;;;;;;;;;17.50;99.07;99762.97;1620516;87;20132;-65
2022/06/28 00:42:19;;;;;;;;;;;;;;;17.48;99.39;99766.11;1621365;87;20096;-65
2022/06/28 00:44:43;;;;;;;;;;;;;;;17.46;99.49;99762.08;1620771;87;21172;-65
2022/06/28 00:47:19;;;;;;;;;;;;;;;17.44;99.69;99759.66;1621279;88;20100;-64
2022/06/28 00:49:48;;;;;;;;;;;;;;;17.42;99.84;99763.95;1600332;88;20560;-65
2022/06/28 00:52:17;;;;;;;;;;;;;;;17.39;100.00;99768.23;1600688;88;20456;-65
2022/06/28 00:54:53;;;;;;;;;;;;;;;17.38;100.00;99765.81;1620685;88;20104;-65
2022/06/28 00:57:22;;;;;;;;;;;;;;;17.36;100.00;99762.59;1599697;88;20161;-65
2022/06/28 00:59:53;;;;;;;;;;;;;;;17.34;100.00;99761.56;1621954;87;20096;-65
2022/06/28 01:02:24;;;;;;;;;;;;;;;17.31;100.00;99758.14;1621562;87;20109;-65
2022/06/28 01:04:53;;;;;;;;;;;;;;;17.30;100.00;99750.98;1620157;87;20135;-65
2022/06/28 01:07:27;;;;;;;;;;;;;;;17.30;100.00;99756.53;1614962;88;20110;-64
2022/06/28 01:09:56;;;;;;;;;;;;;;;17.29;100.00;99758.27;1642820;87;21186;-64
2022/06/28 01:12:27;;;;;;;;;;;;;;;17.24;100.00;99765.47;1650451;85;20125;-65
2022/06/28 01:15:01;;;;;;;;;;;;;;;17.21;100.00;99768.95;1670706;85;20129;-65
2022/06/28 01:17:38;;;;;;;;;;;;;;;17.20;100.00;99763.17;1668941;84;20700;-65
2022/06/28 01:20:13;;;;;;;;;;;;;;;17.16;100.00;99757.52;1667846;86;20125;-65
2022/06/28 01:23:00;;;;;;;;;;;;;;;17.12;100.00;99754.66;1664431;86;21141;-65
2022/06/28 01:25:22;;;;;;;;;;;;;;;17.10;100.00;99754.78;1650112;86;20185;-65
2022/06/28 01:27:57;;;;;;;;;;;;;;;17.07;100.00;99751.33;1649665;86;20113;-65
2022/06/28 01:30:27;;;;;;;;;;;;;;;17.05;100.00;99749.48;1648367;86;20170;-65
2022/06/28 01:33:06;;;;;;;;;;;;;;;17.04;100.00;99752.03;1669464;86;20149;-65
2022/06/28 01:35:38;;;;;;;;;;;;;;;17.01;100.00;99746.62;1648527;86;20548;-65
2022/06/28 01:38:12;;;;;;;;;;;;;;;16.99;100.00;99743.97;1648257;86;37439;-65
2022/06/28 01:40:53;;;;;;;;;;;;;;;16.97;100.00;99752.64;1670180;86;20201;-64
2022/06/28 01:43:20;;;;;;;;;;;;;;;16.95;100.00;99746.64;1670551;86;20608;-64
2022/06/28 01:45:51;;;;;;;;;;;;;;;16.95;100.00;99746.64;1648514;86;20155;-65
2022/06/28 01:48:24;;;;;;;;;;;;;;;16.93;100.00;99746.19;1662778;86;21888;-64
2022/06/28 01:50:59;;;;;;;;;;;;;;;16.93;100.00;99750.34;1648925;86;20468;-64
2022/06/28 01:53:28;;;;;;;;;;;;;;;16.92;100.00;99755.66;1671156;86;20154;-65
2022/06/28 01:55:56;;;;;;;;;;;;;;;16.90;100.00;99750.25;1669731;86;20181;-65
2022/06/28 01:58:37;;;;;;;;;;;;;;;16.89;100.00;99750.83;1671020;85;20314;-65
2022/06/28 02:01:07;;;;;;;;;;;;;;;16.88;100.00;99749.21;1669949;86;21166;-65
2022/06/28 02:03:42;;;;;;;;;;;;;;;16.89;100.00;99750.83;1644804;87;20429;-65
2022/06/28 02:06:17;;;;;;;;;;;;;;;16.89;100.00;99749.44;1686214;84;20116;-65
2022/06/28 02:11:17;;;;;;;;;;;;;;;16.88;100.00;99753.95;1677263;85;20100;-65
2022/06/28 02:13:57;;;;;;;;;;;;;;;16.86;100.00;99755.69;1667468;85;20124;-65
2022/06/28 02:16:23;;;;;;;;;;;;;;;16.84;100.00;99750.49;1686863;83;20239;-65
2022/06/28 02:19:02;;;;;;;;;;;;;;;16.83;100.00;99750.27;1687545;85;20136;-65
2022/06/28 02:21:22;;;;;;;;;;;;;;;16.83;100.00;99752.23;1684392;85;20498;-66
2022/06/28 02:23:49;;;;;;;;;;;;;;;16.85;100.00;99751.30;1691273;84;20096;-65
2022/06/28 02:26:24;;;;;;;;;;;;;;;16.86;100.00;99745.98;1690844;85;21320;-65
2022/06/28 02:28:52;;;;;;;;;;;;;;;16.86;100.00;99745.98;1691224;85;20115;-65
2022/06/28 02:31:27;;;;;;;;;;;;;;;16.88;100.00;99746.44;1691264;85;20462;-64
2022/06/28 02:33:57;;;;;;;;;;;;;;;16.89;100.00;99750.83;1662619;85;20235;-65
2022/06/28 02:41:53;;;;;;;;;;;;;;;16.98;100.00;99750.09;1664287;85;20099;-64
2022/06/28 02:44:25;;;;;;;;;;;;;;;17.05;100.00;99749.48;1690390;85;20148;-65
2022/06/28 02:46:58;;;;;;;;;;;;;;;17.11;100.00;99748.07;1692386;84;20080;-65
2022/06/28 02:49:26;;;;;;;;;;;;;;;17.16;100.00;99750.59;1677245;85;20101;-66
2022/06/28 02:51:58;;;;;;;;;;;;;;;17.26;100.00;99749.27;1673948;85;22094;-66
2022/06/28 02:54:44;;;;;;;;;;;;;;;17.36;100.00;99748.72;1653095;85;20101;-66
2022/06/28 02:57:03;;;;;;;;;;;;;;;17.44;100.00;99749.94;1672350;85;20089;-64
2022/06/28 02:59:36;;;;;;;;;;;;;;;17.50;100.00;99747.13;1653250;86;20120;-65
2022/06/28 03:02:05;;;;;;;;;;;;;;;17.58;100.00;99748.12;1671330;85;20447;-64
2022/06/28 03:04:35;;;;;;;;;;;;;;;17.64;100.00;99748.08;1672089;86;21152;-65
2022/06/28 03:07:10;;;;;;;;;;;;;;;17.74;100.00;99740.63;1630363;87;20093;-65
2022/06/28 03:09:50;;;;;;;;;;;;;;;17.86;100.00;99746.67;1628640;88;20089;-65
2022/06/28 03:12:16;;;;;;;;;;;;;;;17.95;100.00;99747.84;1627292;87;20132;-66
2022/06/28 03:14:49;;;;;;;;;;;;;;;18.02;100.00;99746.05;1637265;86;20448;-66
2022/06/28 03:17:17;;;;;;;;;;;;;;;18.12;100.00;99746.08;1658631;85;20462;-66
2022/06/28 03:19:43;;;;;;;;;;;;;;;18.22;100.00;99740.55;1659071;86;20110;-65
2022/06/28 03:22:12;;;;;;;;;;;;;;;18.32;100.00;99740.80;1658800;86;20150;-66
2022/06/28 03:24:44;;;;;;;;;;;;;;;18.45;100.00;99745.06;1653816;86;20122;-67
2022/06/28 03:27:13;;;;;;;;;;;;;;;18.59;100.00;99746.52;1658964;86;20431;-66
2022/06/28 03:29:44;;;;;;;;;;;;;;;18.72;100.00;99748.83;1634881;86;21257;-65
2022/06/28 03:32:16;;;;;;;;;;;;;;;18.87;100.00;99752.70;1637038;86;20105;-65
2022/06/28 03:34:45;;;;;;;;;;;;;;;19.05;100.00;99750.29;1658835;86;20130;-65
2022/06/28 03:37:16;;;;;;;;;;;;;;;19.24;100.00;99752.22;1694927;84;20096;-65
2022/06/28 03:39:46;;;;;;;;;;;;;;;19.42;100.00;99754.75;1693828;84;20108;-65
2022/06/28 03:42:15;;;;;;;;;;;;;;;19.61;100.00;99755.31;1667591;84;20083;-65
2022/06/28 03:44:46;;;;;;;;;;;;;;;19.78;100.00;99756.98;1694968;84;20139;-65
2022/06/28 03:47:17;;;;;;;;;;;;;;;19.95;100.00;99756.27;1659714;84;20111;-65
2022/06/28 03:50:05;;;;;;;;;;;;;;;20.12;100.00;99752.95;1664412;84;20430;-65
2022/06/28 03:52:47;;;;;;;;;;;;;;;20.28;100.00;99756.36;1659777;84;20083;-66
2022/06/28 03:55:17;;;;;;;;;;;;;;;20.46;100.00;99751.08;1694520;84;21180;-65
2022/06/28 03:57:53;;;;;;;;;;;;;;;20.59;100.00;99748.27;1693211;84;20092;-69
2022/06/28 04:00:22;;;;;;;;;;;;;;;20.72;99.12;99752.44;1694063;84;20415;-71
2022/06/28 04:02:50;;;;;;;;;;;;;;;20.83;98.72;99749.75;1693050;84;20615;-70
2022/06/28 04:05:32;;;;;;;;;;;;;;;20.93;98.29;99746.30;1681307;84;20496;-66
2022/06/28 04:08:08;;;;;;;;;;;;;;;21.07;97.74;99752.64;1655936;86;21160;-66
2022/06/28 04:10:36;;;;;;;;;;;;;;;21.19;97.04;99752.97;1659809;85;20106;-71
2022/06/28 04:13:06;;;;;;;;;;;;;;;21.31;94.44;99753.55;1630282;86;20105;-69
2022/06/28 04:15:39;;;;;;;;;;;;;;;21.42;93.21;99757.81;1625498;88;20139;-67
2022/06/28 04:18:18;;;;;;;;;;;;;;;21.54;91.84;99752.55;1627566;88;20152;-70
2022/06/28 04:21:01;;;;;;;;;;;;;;;21.69;90.91;99757.08;1625850;87;20134;-69
2022/06/28 04:23:37;;;;;;;;;;;;;;;21.81;89.77;99749.80;1644425;87;20122;-69
2022/06/28 04:26:11;;;;;;;;;;;;;;;21.95;87.85;99746.33;1638004;86;20488;-73
2022/06/28 04:28:47;;;;;;;;;;;;;;;22.07;87.84;99751.61;1659274;86;21050;-67
2022/06/28 04:31:26;;;;;;;;;;;;;;;22.19;86.68;99752.70;1659227;85;20137;-68
2022/06/28 04:33:53;;;;;;;;;;;;;;;22.30;85.74;99759.77;1644517;86;22050;-67
2022/06/28 04:36:26;;;;;;;;;;;;;;;22.41;84.80;99756.45;1643882;86;20468;-67
2022/06/28 04:38:56;;;;;;;;;;;;;;;22.54;83.97;99754.09;1660739;86;20153;-68
2022/06/28 04:41:25;;;;;;;;;;;;;;;22.68;83.18;99755.58;1661113;85;20174;-67
2022/06/28 04:43:58;;;;;;;;;;;;;;;22.81;82.40;99754.67;1661404;85;20138;-67
2022/06/28 04:46:29;;;;;;;;;;;;;;;22.97;82.25;99755.95;1660720;86;21237;-68
2022/06/28 04:49:01;;;;;;;;;;;;;;;23.11;80.26;99754.39;1660681;86;20117;-71
2022/06/28 04:51:33;;;;;;;;;;;;;;;23.24;80.63;99752.20;1644603;87;20134;-72
2022/06/28 04:54:04;;;;;;;;;;;;;;;23.40;80.89;99751.84;1654785;85;20356;-72
2022/06/28 04:56:32;;;;;;;;;;;;;;;23.54;79.47;99743.50;1655452;86;20673;-72
2022/06/28 04:59:02;;;;;;;;;;;;;;;23.70;78.65;99742.48;1658475;86;20153;-71
2022/06/28 05:01:31;;;;;;;;;;;;;;;23.85;77.26;99741.09;1656481;86;20126;-73
2022/06/28 05:03:58;;;;;;;;;;;;;;;24.01;77.49;99739.48;1656563;86;20528;-68
2022/06/28 05:06:26;;;;;;;;;;;;;;;24.16;77.17;99734.67;1670623;84;20678;-69
2022/06/28 05:08:55;;;;;;;;;;;;;;;24.31;76.13;99736.25;1678241;85;20129;-70
2022/06/28 05:11:22;;;;;;;;;;;;;;;24.47;75.33;99736.42;1678175;85;21273;-65
2022/06/28 05:14:07;;;;;;;;;;;;;;;24.59;73.62;99732.58;1670564;85;20460;-69
2022/06/28 05:16:33;;;;;;;;;;;;;;;24.73;72.14;99728.13;1670180;85;20156;-71
2022/06/28 05:19:00;;;;;;;;;;;;;;;24.83;70.96;99724.47;1659771;84;20351;-68
2022/06/28 05:21:28;;;;;;;;;;;;;;;24.92;69.04;99725.61;1669253;86;20184;-68
2022/06/28 05:23:55;;;;;;;;;;;;;;;25.01;69.35;99722.39;1669871;86;21213;-69
2022/06/28 05:26:36;;;;;;;;;;;;;;;25.13;68.87;99719.72;1670869;86;20487;-69
2022/06/28 05:29:04;;;;;;;;;;;;;;;25.25;68.23;99722.06;1657222;86;20129;-74
2022/06/28 05:31:31;;;;;;;;;;;;;;;25.36;66.62;99717.17;1638392;86;20177;-69
2022/06/28 05:34:02;;;;;;;;;;;;;;;25.46;66.50;99717.68;1658550;86;20169;-70
2022/06/28 05:36:29;;;;;;;;;;;;;;;25.56;65.57;99720.22;1658082;86;21193;-70
2022/06/28 05:39:06;;;;;;;;;;;;;;;25.66;65.11;99729.22;1659707;86;20133;-68
2022/06/28 05:41:33;;;;;;;;;;;;;;;25.77;65.12;99734.15;1658599;86;20150;-69
2022/06/28 05:44:02;;;;;;;;;;;;;;;25.89;64.34;99732.24;1658935;85;20130;-70
2022/06/28 05:46:32;;;;;;;;;;;;;;;25.99;64.09;99734.17;1637842;86;20189;-72
2022/06/28 05:48:59;;;;;;;;;;;;;;;26.08;63.59;99735.67;1658676;86;21214;-68
2022/06/28 05:51:25;;;;;;;;;;;;;;;26.17;63.93;99729.75;1658802;86;20153;-71
2022/06/28 05:53:52;;;;;;;;;;;;;;;26.25;63.17;99731.28;1658723;85;20460;-67
2022/06/28 05:56:18;;;;;;;;;;;;;;;26.34;63.12;99735.05;1659094;86;20153;-72
2022/06/28 05:58:45;;;;;;;;;;;;;;;26.42;62.20;99730.94;1658831;86;20126;-72
2022/06/28 06:01:11;;;;;;;;;;;;;;;26.52;63.00;99730.64;1658821;86;21192;-73
2022/06/28 06:03:38;;;;;;;;;;;;;;;26.60;62.29;99727.91;1658975;86;20181;-72
2022/06/28 06:06:05;;;;;;;;;;;;;;;26.70;62.43;99729.80;1665151;84;20096;-71
2022/06/28 06:08:35;;;;;;;;;;;;;;;26.78;62.81;99728.49;1677434;85;20151;-72
2022/06/28 06:11:03;;;;;;;;;;;;;;;26.88;62.42;99721.93;1677502;85;20487;-71
2022/06/28 06:13:30;;;;;;;;;;;;;;;26.98;62.35;99724.45;1677439;85;21222;-72
2022/06/28 06:15:56;;;;;;;;;;;;;;;27.08;62.13;99721.30;1677387;84;20097;-72
2022/06/28 06:18:23;;;;;;;;;;;;;;;27.17;61.27;99722.35;1677403;85;20097;-71
2022/06/28 06:20:51;;;;;;;;;;;;;;;27.27;61.56;99723.42;1677571;85;20207;-72
2022/06/28 06:23:17;;;;;;;;;;;;;;;27.37;62.25;99722.48;1677293;85;20096;-67
2022/06/28 06:25:47;;;;;;;;;;;;;;;27.50;61.79;99719.26;1677293;85;20125;-72
2022/06/28 06:28:14;;;;;;;;;;;;;;;27.61;60.14;99717.72;1677721;85;20124;-72
2022/06/28 06:30:40;;;;;;;;;;;;;;;27.71;61.11;99715.95;1677448;85;20080;-73
2022/06/28 06:33:08;;;;;;;;;;;;;;;27.78;59.85;99713.78;1675199;85;20148;-75
2022/06/28 06:35:42;;;;;;;;;;;;;;;27.84;58.47;99715.50;1670274;85;20140;-75
2022/06/28 06:38:08;;;;;;;;;;;;;;;27.87;58.95;99712.62;1677832;85;21111;-74
2022/06/28 06:40:36;;;;;;;;;;;;;;;27.93;57.90;99711.52;1677439;85;20112;-72
2022/06/28 06:43:03;;;;;;;;;;;;;;;28.00;58.08;99717.03;1677489;85;20100;-72
2022/06/28 06:45:31;;;;;;;;;;;;;;;28.10;57.47;99712.44;1676278;85;20462;-72
2022/06/28 06:47:57;;;;;;;;;;;;;;;28.19;57.07;99718.31;1676998;85;20435;-72
2022/06/28 06:50:30;;;;;;;;;;;;;;;28.29;56.53;99713.13;1676898;85;21912;-66
2022/06/28 06:52:57;;;;;;;;;;;;;;;28.35;56.35;99705.72;1657989;85;20096;-72
2022/06/28 06:55:25;;;;;;;;;;;;;;;28.43;56.21;99709.20;1677649;85;20084;-72
2022/06/28 06:57:52;;;;;;;;;;;;;;;28.52;54.58;99708.02;1677425;85;20433;-71
2022/06/28 07:00:18;;;;;;;;;;;;;;;28.59;55.38;99708.67;1677298;85;20148;-71
2022/06/28 07:02:45;;;;;;;;;;;;;;;28.71;54.90;99705.81;1677690;85;22134;-70
2022/06/28 07:05:12;;;;;;;;;;;;;;;28.82;54.53;99707.83;1677340;85;20127;-70
2022/06/28 07:07:39;;;;;;;;;;;;;;;28.93;54.46;99716.05;1678589;85;20133;-73
2022/06/28 07:10:07;;;;;;;;;;;;;;;29.08;54.67;99720.78;1676263;85;20089;-71
2022/06/28 07:12:33;;;;;;;;;;;;;;;29.19;53.71;99722.77;1675255;85;20113;-71
2022/06/28 07:14:59;;;;;;;;;;;;;;;29.31;53.99;99726.33;1674655;85;21143;-70
2022/06/28 07:17:28;;;;;;;;;;;;;;;29.48;52.65;99720.08;1673647;85;20173;-67
2022/06/28 07:19:54;;;;;;;;;;;;;;;29.63;49.96;99723.37;1673761;86;20117;-67
2022/06/28 07:22:22;;;;;;;;;;;;;;;29.68;50.06;99714.36;1674103;85;20707;-66
2022/06/28 07:24:51;;;;;;;;;;;;;;;29.78;51.57;99723.20;1673829;86;20109;-66
2022/06/28 07:27:18;;;;;;;;;;;;;;;29.86;49.39;99716.92;1673765;86;21951;-67
2022/06/28 07:29:45;;;;;;;;;;;;;;;29.82;49.83;99716.83;1673701;86;20085;-66
2022/06/28 07:32:12;;;;;;;;;;;;;;;29.83;49.45;99724.08;1673760;86;20120;-67
2022/06/28 07:34:38;;;;;;;;;;;;;;;29.95;49.93;99729.66;1673737;86;20134;-66
2022/06/28 07:37:05;;;;;;;;;;;;;;;30.11;48.97;99731.85;1673885;86;20116;-66
2022/06/28 07:39:33;;;;;;;;;;;;;;;30.29;48.19;99727.76;1673848;86;21780;-66
2022/06/28 07:42:18;;;;;;;;;;;;;;;30.38;48.06;99732.96;1673805;86;20101;-66
2022/06/28 07:45:04;;;;;;;;;;;;;;;30.40;46.86;99736.77;1673874;86;20109;-68
2022/06/28 07:47:32;;;;;;;;;;;;;;;30.35;47.82;99732.44;1673738;86;20100;-69
2022/06/28 07:52:44;;;;;;;;;;;;;;;30.27;46.70;99738.73;1673776;86;21159;-70
2022/06/28 07:55:12;;;;;;;;;;;;;;;30.17;48.09;99734.33;1673912;85;20088;-70
2022/06/28 07:57:41;;;;;;;;;;;;;;;30.14;47.90;99733.00;1671915;85;20148;-70
2022/06/28 08:00:08;;;;;;;;;;;;;;;29.97;47.40;99731.42;1629299;88;20121;-67
2022/06/28 08:02:36;;;;;;;;;;;;;;;29.77;48.10;99731.51;1693318;84;20096;-67
2022/06/28 08:05:04;;;;;;;;;;;;;;;29.61;48.38;99728.05;1693441;85;21256;-67
2022/06/28 08:07:33;;;;;;;;;;;;;;;29.60;49.32;99723.62;1693633;84;20169;-67
2022/06/28 08:09:59;;;;;;;;;;;;;;;29.76;49.32;99722.84;1666949;84;20472;-67
2022/06/28 08:12:26;;;;;;;;;;;;;;;29.98;49.06;99722.48;1656344;86;20631;-67
2022/06/28 08:14:54;;;;;;;;;;;;;;;30.23;48.15;99726.88;1656307;86;20110;-66
2022/06/28 08:17:20;;;;;;;;;;;;;;;30.38;47.13;99720.22;1656374;85;21155;-68
2022/06/28 08:19:48;;;;;;;;;;;;;;;30.51;46.89;99724.52;1637213;86;20186;-66
2022/06/28 08:22:15;;;;;;;;;;;;;;;30.59;47.76;99716.65;1656366;86;20118;-66
2022/06/28 08:24:42;;;;;;;;;;;;;;;30.64;46.31;99716.08;1656620;86;20460;-67
2022/06/28 08:27:08;;;;;;;;;;;;;;;30.60;45.35;99709.74;1656360;85;20138;-67
2022/06/28 08:29:35;;;;;;;;;;;;;;;30.73;45.78;99702.84;1656449;86;21254;-69
2022/06/28 08:32:03;;;;;;;;;;;;;;;31.04;44.45;99703.77;1656176;86;20472;-70
2022/06/28 08:34:30;;;;;;;;;;;;;;;31.37;43.61;99714.29;1656229;86;20170;-70
2022/06/28 08:36:57;;;;;;;;;;;;;;;31.69;44.49;99712.67;1637440;86;22670;-71
2022/06/28 08:39:23;;;;;;;;;;;;;;;32.01;43.40;99710.77;1656683;86;20106;-68
2022/06/28 08:41:49;;;;;;;;;;;;;;;32.37;41.79;99708.91;1656454;86;21741;-66
2022/06/28 08:44:17;;;;;;;;;;;;;;;32.63;41.84;99705.33;1637383;86;20476;-66
2022/06/28 08:46:46;;;;;;;;;;;;;;;32.88;41.08;99706.64;1656385;86;20117;-66
2022/06/28 08:49:14;;;;;;;;;;;;;;;33.03;39.39;99701.96;1656515;86;20141;-66
2022/06/28 08:51:41;;;;;;;;;;;;;;;33.10;38.44;99699.47;1656365;85;20157;-71
2022/06/28 08:54:07;;;;;;;;;;;;;;;33.06;38.11;99695.97;1656625;86;21054;-66
2022/06/28 08:56:35;;;;;;;;;;;;;;;33.02;39.06;99697.53;1656466;86;20464;-69
2022/06/28 08:59:02;;;;;;;;;;;;;;;33.07;39.69;99704.67;1655979;86;20181;-71
2022/06/28 09:01:29;;;;;;;;;;;;;;;33.33;40.18;99703.89;1656279;86;20188;-72
2022/06/28 09:03:55;;;;;;;;;;;;;;;33.66;39.23;99704.14;1656381;86;20117;-70
2022/06/28 09:06:23;;;;;;;;;;;;;;;33.98;38.84;99702.20;1656313;86;21159;-71
2022/06/28 09:08:52;;;;;;;;;;;;;;;34.21;37.49;99701.41;1659433;85;20117;-73
2022/06/28 09:11:19;;;;;;;;;;;;;;;34.22;35.92;99700.94;1638129;87;20129;-71
2022/06/28 09:13:46;;;;;;;;;;;;;;;34.18;36.38;99710.90;1640024;87;20442;-71
2022/06/28 09:16:13;;;;;;;;;;;;;;;34.27;36.42;99703.16;1640261;86;20151;-72
2022/06/28 09:18:43;;;;;;;;;;;;;;;34.36;35.00;99706.03;1640126;87;21234;-71
2022/06/28 09:21:11;;;;;;;;;;;;;;;34.33;35.99;99699.07;1689380;85;20095;-70
2022/06/28 09:23:40;;;;;;;;;;;;;;;34.46;36.03;99686.88;1689437;85;20108;-70
2022/06/28 09:26:17;;;;;;;;;;;;;;;34.74;34.51;99682.70;1689655;85;20164;-73
2022/06/28 09:28:51;;;;;;;;;;;;;;;34.61;34.27;99682.12;1689221;85;20115;-74
2022/06/28 09:31:21;;;;;;;;;;;;;;;34.46;35.71;99676.91;1660186;85;21795;-74
2022/06/28 09:34:02;;;;;;;;;;;;;;;34.31;34.20;99676.75;1689543;85;20120;-70
2022/06/28 09:36:31;;;;;;;;;;;;;;;34.21;35.06;99675.77;1689616;85;20112;-68
2022/06/28 09:39:01;;;;;;;;;;;;;;;34.34;34.10;99676.44;1689745;85;20419;-68
2022/06/28 09:41:27;;;;;;;;;;;;;;;34.34;33.90;99670.73;1689483;85;20423;-69
2022/06/28 09:43:58;;;;;;;;;;;;;;;34.32;32.71;99663.30;1689545;85;21142;-68
2022/06/28 09:46:26;;;;;;;;;;;;;;;34.38;35.32;99657.12;1689535;85;20232;-67
2022/06/28 09:49:00;;;;;;;;;;;;;;;34.71;34.64;99658.00;1689796;85;20076;-67
2022/06/28 09:51:29;;;;;;;;;;;;;;;34.96;33.96;99651.79;1688769;85;21061;-70
2022/06/28 09:54:06;;;;;;;;;;;;;;;35.05;33.99;99653.98;1659037;85;20466;-72
2022/06/28 09:56:43;;;;;;;;;;;;;;;35.03;33.42;99647.17;1688450;85;21276;-70
2022/06/28 09:59:12;;;;;;;;;;;;;;;34.98;33.75;99650.67;1689312;85;20130;-72
2022/06/28 10:01:44;;;;;;;;;;;;;;;34.92;33.99;99645.47;1689415;85;20117;-66
2022/06/28 10:04:15;;;;;;;;;;;;;;;35.03;33.27;99644.32;1689328;85;20156;-66
2022/06/28 10:06:42;;;;;;;;;;;;;;;35.01;31.85;99646.23;1689601;85;20124;-65
2022/06/28 10:09:15;;;;;;;;;;;;;;;34.95;31.92;99650.21;1689140;85;21147;-65
2022/06/28 10:17:34;;;;;;;;;;;;;;;34.91;33.50;99649.59;1677649;84;20146;-66
2022/06/28 10:20:10;;;;;;;;;;;;;;;35.21;33.05;99650.59;1657857;85;20443;-66
2022/06/28 10:22:53;;;;;;;;;;;;;;;35.40;31.30;99644.95;1652254;85;20684;-67
2022/06/28 10:25:22;;;;;;;;;;;;;;;35.45;33.31;99648.58;1672234;85;20679;-67
2022/06/28 10:27:50;;;;;;;;;;;;;;;35.67;32.74;99645.45;1677707;85;20097;-67
2022/06/28 10:30:21;;;;;;;;;;;;;;;35.88;32.49;99634.99;1657304;85;20125;-67
2022/06/28 10:32:53;;;;;;;;;;;;;;;36.02;31.31;99645.68;1635451;85;20144;-70
2022/06/28 10:35:35;;;;;;;;;;;;;;;35.92;29.45;99640.67;1676639;85;21238;-70
2022/06/28 10:38:14;;;;;;;;;;;;;;;35.66;29.80;99636.72;1658840;86;20137;-68
2022/06/28 10:40:53;;;;;;;;;;;;;;;35.52;32.02;99630.30;1687809;85;20100;-72
2022/06/28 10:43:34;;;;;;;;;;;;;;;35.63;31.19;99629.13;1687556;85;20685;-71
2022/06/28 10:46:04;;;;;;;;;;;;;;;35.64;31.19;99620.08;1686690;85;20506;-73
2022/06/28 10:48:54;;;;;;;;;;;;;;;35.33;32.11;99623.27;1685690;85;21163;-68
2022/06/28 10:51:24;;;;;;;;;;;;;;;35.07;32.69;99621.48;1658924;85;20106;-71
2022/06/28 10:54:06;;;;;;;;;;;;;;;35.01;33.29;99621.98;1636548;86;20133;-66
2022/06/28 10:56:44;;;;;;;;;;;;;;;35.19;33.23;99614.63;1686078;85;20100;-71
2022/06/28 10:59:16;;;;;;;;;;;;;;;35.31;31.30;99605.84;1665646;85;20100;-68
2022/06/28 11:01:52;;;;;;;;;;;;;;;35.51;31.40;99608.11;1666594;85;20153;-67
2022/06/28 11:04:24;;;;;;;;;;;;;;;35.76;31.76;99610.33;1687326;85;20104;-68
2022/06/28 11:06:53;;;;;;;;;;;;;;;35.57;31.25;99603.95;1687541;85;20092;-70
2022/06/28 11:09:25;;;;;;;;;;;;;;;35.46;32.38;99603.70;1687299;85;20545;-65
2022/06/28 11:12:12;;;;;;;;;;;;;;;35.61;31.69;99605.98;1689914;84;20155;-65
2022/06/28 11:15:02;;;;;;;;;;;;;;;35.79;31.99;99605.89;1694984;84;21806;-65
2022/06/28 11:17:31;;;;;;;;;;;;;;;36.12;31.43;99603.54;1579255;90;20112;-66
2022/06/28 11:20:09;;;;;;;;;;;;;;;36.41;31.73;99607.08;1579227;91;20096;-65
2022/06/28 11:22:43;;;;;;;;;;;;;;;36.53;31.35;99595.36;1616514;86;20154;-66
2022/06/28 11:25:13;;;;;;;;;;;;;;;36.63;28.01;99593.98;1675416;85;20125;-66
2022/06/28 11:27:56;;;;;;;;;;;;;;;36.52;29.22;99586.64;1679701;85;21172;-66
2022/06/28 11:30:27;;;;;;;;;;;;;;;36.52;30.29;99588.06;1680579;85;20121;-65
2022/06/28 11:32:57;;;;;;;;;;;;;;;36.38;28.52;99584.59;1680403;85;20116;-66
2022/06/28 11:35:28;;;;;;;;;;;;;;;36.03;29.82;99584.41;1680359;85;20112;-66
2022/06/28 11:38:07;;;;;;;;;;;;;;;36.01;31.13;99586.33;1679444;85;20116;-66
2022/06/28 11:40:54;;;;;;;;;;;;;;;36.09;29.54;99585.95;1680496;85;21277;-66
2022/06/28 11:43:25;;;;;;;;;;;;;;;36.13;31.34;99587.34;1680382;85;20121;-66
2022/06/28 11:45:53;;;;;;;;;;;;;;;36.13;29.26;99580.83;1680619;85;20164;-66
2022/06/28 11:48:22;;;;;;;;;;;;;;;36.19;31.03;99587.45;1680728;85;20193;-66
2022/06/28 11:50:57;;;;;;;;;;;;;;;36.37;29.71;99574.44;1680465;85;20434;-66
2022/06/28 11:53:25;;;;;;;;;;;;;;;36.50;29.85;99579.19;1680395;84;21201;-66
2022/06/28 11:55:52;;;;;;;;;;;;;;;36.50;30.15;99574.91;1680354;85;20116;-65
2022/06/28 11:58:28;;;;;;;;;;;;;;;36.42;30.10;99573.72;1680401;85;20124;-66
2022/06/28 12:01:12;;;;;;;;;;;;;;;36.52;30.62;99569.48;1680478;85;20427;-66
2022/06/28 12:03:46;;;;;;;;;;;;;;;36.62;29.11;99567.31;1680577;85;20090;-66
2022/06/28 12:06:22;;;;;;;;;;;;;;;36.73;29.69;99562.42;1658916;86;21814;-66
2022/06/28 12:08:51;;;;;;;;;;;;;;;37.02;28.94;99549.50;1694464;84;20096;-66
2022/06/28 12:11:35;;;;;;;;;;;;;;;37.19;28.25;99555.47;1694022;84;20135;-66
2022/06/28 12:14:15;;;;;;;;;;;;;;;37.04;28.93;99561.23;1687326;84;20112;-66
2022/06/28 12:16:44;;;;;;;;;;;;;;;37.08;29.36;99560.39;1688824;83;20135;-66
2022/06/28 12:19:21;;;;;;;;;;;;;;;37.29;27.48;99554.88;1689334;85;21833;-66
2022/06/28 12:22:08;;;;;;;;;;;;;;;37.34;28.24;99554.81;1689428;85;20128;-65
2022/06/28 12:24:41;;;;;;;;;;;;;;;37.42;29.10;99555.17;1689574;85;20092;-66
2022/06/28 12:27:09;;;;;;;;;;;;;;;37.54;28.17;99554.83;1689469;85;20782;-66
2022/06/28 12:29:35;;;;;;;;;;;;;;;37.43;29.03;99551.02;1689410;85;20119;-66
2022/06/28 12:32:02;;;;;;;;;;;;;;;37.19;30.27;99554.83;1689719;85;21267;-66
2022/06/28 12:34:28;;;;;;;;;;;;;;;36.83;29.06;99554.70;1689599;85;20426;-66
2022/06/28 12:36:55;;;;;;;;;;;;;;;36.37;29.16;99560.15;1689564;85;20124;-67
2022/06/28 12:39:21;;;;;;;;;;;;;;;36.31;31.10;99552.11;1689433;85;20994;-66
2022/06/28 12:41:51;;;;;;;;;;;;;;;36.58;29.56;99550.36;1689380;85;20127;-66
2022/06/28 12:44:18;;;;;;;;;;;;;;;36.94;29.62;99548.36;1688809;85;21158;-66
2022/06/28 12:46:45;;;;;;;;;;;;;;;37.20;29.15;99543.53;1689504;85;20434;-66
2022/06/28 12:49:11;;;;;;;;;;;;;;;37.27;28.91;99543.14;1689536;85;20139;-66
2022/06/28 12:51:38;;;;;;;;;;;;;;;37.45;29.04;99540.65;1689551;85;20084;-66
2022/06/28 12:54:04;;;;;;;;;;;;;;;37.55;27.43;99542.05;1689546;85;20450;-66
2022/06/28 12:56:31;;;;;;;;;;;;;;;37.50;28.78;99537.07;1689727;85;20550;-66
2022/06/28 12:58:58;;;;;;;;;;;;;;;37.61;28.16;99546.42;1689510;85;20146;-66
2022/06/28 13:01:24;;;;;;;;;;;;;;;37.67;28.05;99538.07;1689736;85;20423;-66
2022/06/28 13:03:51;;;;;;;;;;;;;;;37.87;28.38;99535.83;1689692;85;20088;-66
2022/06/28 13:06:17;;;;;;;;;;;;;;;38.12;27.18;99534.92;1689708;85;20422;-66
2022/06/28 13:08:43;;;;;;;;;;;;;;;38.13;27.77;99537.97;1689309;85;21168;-66
2022/06/28 13:11:12;;;;;;;;;;;;;;;37.94;27.68;99541.77;1688847;85;20108;-66
2022/06/28 13:13:39;;;;;;;;;;;;;;;37.39;28.81;99543.30;1683302;85;20547;-66
2022/06/28 13:16:06;;;;;;;;;;;;;;;36.74;29.51;99547.66;1658462;85;20463;-66
2022/06/28 13:18:32;;;;;;;;;;;;;;;36.10;30.31;99548.95;1658421;86;20152;-66
2022/06/28 13:20:59;;;;;;;;;;;;;;;35.53;31.11;99544.19;1658375;86;21721;-67
2022/06/28 13:23:26;;;;;;;;;;;;;;;35.24;31.75;99544.81;1658424;86;20117;-67